الصفحة الرئيسية
METAR-TAF:

METAR-TAF

مطار :

ميناء القاهرة الجوي

القاهرة, مصر

دائرة عرض: 30-08N, خط طول: 031-24E, ارتفاع: 64 متر

مراقبة الطقس الحالي

تاريخ ووقت الإصدار 18 دقيقة قبل الساعة 07:00UTC
ريح 3 عقدة من الغرب/الشمال الغربي
درجة الحرارة 22°درجة مئوية
الرطوبة 69%
ضغط 1018 hPa
الرؤية 10 كم أو أكثر
غيوم متفرقة على ارتفاع 2500 قدم

METAR: HECA 150700Z 30003KT 9999 SCT025 22/16 Q1018 NOSIG

زمن: 09:18 (07:18 UTC)

توقعات

تاريخ ووقت الإصدار 2ساعات و 18 دقيقة قبل الساعة 05:00UTC
التوقعات صالحة من15 الساعة 06 UTC إلى 16 الساعة 12 UTC
ريح 5 عقدة من الشمال الغربي
الرؤية: 6000 متر
غيوم متفرقة على ارتفاع 2500 قدم
مؤقت
من 15 الساعة 06 UTC إلى 15 الساعة 09 UTC
ريح 3 عقدةمن اتجاهات متغيرة
الرؤية: 4000 متر
غشاء
أصبح
من 15 الساعة 09 UTC إلى 15 الساعة 11 UTC
ريح 12 عقدة من الشمال الغربي
الرؤية 10 كم أو أكثر
الغيوم لا تقل 1500 م ولا وجود لمزنة ركامية السحاب الأسود

TAF: HECA 150500Z 1506/1612 32005KT 6000 SCT025 TEMPO 1506/1509 VRB03KT 4000 BR BECMG 1509/1511 32012KT CAVOK

أرصاد الطقس والتوقعات من أكثر من 4000 مطار (تقارير الطقس للمطار METAR والتنبؤ بالطقس بالمطارTAF).

المحطات المتاحة هي النقط الصفراء والحمراء على الخريطة.

حرك المؤشر فوق النقطة لمعرفة اسم المحطة.

ثم انقر لمعرفة أرصاد وتوقعات الطقس.

لتغيير الخارطة: اضغط على الأزرار الخضراء مع رمز الصليب الأسود للتكبير. على الزر الأخضر مع شرطة للتصغير، أو على الأسهم الخضراء للخرائط المجاورة.


METAR-TAF: